createdAt,value
2018-06-20T00:00:14.486Z,63.10
2018-06-20T00:02:42.958Z,63.30
2018-06-20T00:05:11.424Z,63.30
2018-06-20T00:07:39.865Z,63.50
2018-06-20T00:10:08.321Z,63.90
2018-06-20T00:12:36.793Z,64.00
2018-06-20T00:15:05.586Z,64.40
2018-06-20T00:17:34.013Z,64.60
2018-06-20T00:20:02.459Z,64.70
2018-06-20T00:22:30.913Z,64.70
2018-06-20T00:24:59.473Z,64.90
2018-06-20T00:27:27.961Z,64.90
2018-06-20T00:29:56.405Z,65.80
2018-06-20T00:32:24.857Z,65.30
2018-06-20T00:34:53.311Z,65.60
2018-06-20T00:39:50.007Z,66.20
2018-06-20T00:42:19.321Z,66.30
2018-06-20T00:44:47.776Z,66.50
2018-06-20T00:47:16.221Z,66.80
2018-06-20T00:49:44.709Z,67.00
2018-06-20T00:52:13.165Z,67.10
2018-06-20T00:54:41.611Z,67.30
2018-06-20T00:57:10.129Z,67.70
2018-06-20T00:59:38.567Z,67.90
2018-06-20T01:02:07.025Z,68.10
2018-06-20T01:04:35.463Z,68.40
2018-06-20T01:07:03.953Z,68.60
2018-06-20T01:09:32.402Z,69.70
2018-06-20T01:12:00.881Z,70.50
2018-06-20T01:14:29.325Z,70.40
2018-06-20T01:19:25.937Z,70.60
2018-06-20T01:21:54.389Z,70.40
2018-06-20T01:24:22.861Z,70.40
2018-06-20T01:26:54.201Z,70.80
2018-06-20T01:29:22.641Z,71.30
2018-06-20T01:31:51.146Z,71.40
2018-06-20T01:34:19.624Z,71.60
2018-06-20T01:36:48.101Z,71.90
2018-06-20T01:39:16.544Z,72.00
2018-06-20T01:41:45.014Z,72.20
2018-06-20T01:44:13.473Z,72.50
2018-06-20T01:46:41.953Z,72.80
2018-06-20T01:49:10.501Z,72.90
2018-06-20T01:51:38.949Z,73.20
2018-06-20T01:54:07.397Z,73.50
2018-06-20T01:56:35.841Z,73.70
2018-06-20T01:59:04.327Z,73.90
2018-06-20T02:04:00.917Z,74.50
2018-06-20T02:06:29.384Z,75.90
2018-06-20T02:11:29.105Z,76.80
2018-06-20T02:13:57.625Z,77.30
2018-06-20T02:16:26.096Z,77.20
2018-06-20T02:18:54.636Z,77.30
2018-06-20T02:21:23.089Z,77.30
2018-06-20T02:23:51.657Z,77.70
2018-06-20T02:26:20.125Z,78.00
2018-06-20T02:28:48.589Z,78.30
2018-06-20T02:31:17.046Z,78.30
2018-06-20T02:33:45.865Z,78.20
2018-06-20T02:36:47.374Z,78.60
2018-06-20T02:39:15.746Z,78.00
2018-06-20T02:41:44.200Z,77.90
2018-06-20T02:44:12.670Z,78.10
2018-06-20T02:46:41.125Z,78.10
2018-06-20T02:54:05.869Z,78.60
2018-06-20T02:56:34.365Z,78.30
2018-06-20T02:59:02.862Z,78.20
2018-06-20T03:01:31.339Z,78.20
2018-06-20T03:03:59.809Z,78.60
2018-06-20T03:06:28.279Z,78.50
2018-06-20T03:09:01.800Z,78.80
2018-06-20T03:11:30.621Z,79.30
2018-06-20T03:13:59.086Z,79.30
2018-06-20T03:16:27.541Z,80.00
2018-06-20T03:18:56.049Z,79.90
2018-06-20T03:21:24.550Z,79.50
2018-06-20T03:23:53.180Z,79.10
2018-06-20T03:26:21.636Z,79.20
2018-06-20T03:28:50.091Z,79.50
2018-06-20T03:31:18.529Z,79.90
2018-06-20T03:33:46.974Z,80.00
2018-06-20T03:36:15.432Z,80.20
2018-06-20T03:38:43.869Z,81.10
2018-06-20T03:41:12.329Z,80.20
2018-06-20T03:43:40.781Z,80.40
2018-06-20T03:48:37.474Z,81.50
2018-06-20T03:51:06.093Z,81.30
2018-06-20T03:53:34.606Z,81.30
2018-06-20T03:56:03.058Z,81.70
2018-06-20T03:58:31.525Z,82.20
2018-06-20T04:01:00.076Z,82.60
2018-06-20T04:03:28.543Z,82.50
2018-06-20T04:05:57.040Z,82.60
2018-06-20T04:08:25.486Z,82.50
2018-06-20T04:10:53.951Z,82.00
2018-06-20T04:14:51.821Z,81.70
2018-06-20T04:17:20.286Z,81.60
2018-06-20T04:19:48.721Z,80.50
2018-06-20T04:24:45.375Z,78.80
2018-06-20T04:32:10.169Z,81.40
2018-06-20T04:34:38.773Z,83.70
2018-06-20T04:37:07.190Z,85.20
2018-06-20T04:39:35.633Z,85.00
2018-06-20T04:42:04.241Z,83.30
2018-06-20T04:44:32.722Z,82.90
2018-06-20T04:47:01.182Z,81.70
2018-06-20T04:49:29.677Z,81.10
2018-06-20T04:51:58.117Z,82.20
2018-06-20T04:54:26.564Z,80.70
2018-06-20T04:56:55.098Z,80.00
2018-06-20T04:59:23.565Z,79.70
2018-06-20T05:01:52.018Z,78.80
2018-06-20T05:04:20.589Z,78.10
2018-06-20T05:06:48.971Z,77.50
2018-06-20T05:09:19.141Z,77.60
2018-06-20T05:11:49.281Z,79.20
2018-06-20T05:14:18.461Z,81.60
2018-06-20T05:16:47.076Z,84.40
2018-06-20T05:19:15.641Z,84.80
2018-06-20T05:21:44.096Z,84.80
2018-06-20T05:24:12.557Z,84.30
2018-06-20T05:26:40.999Z,83.20
2018-06-20T05:29:09.453Z,82.70
2018-06-20T05:31:37.892Z,81.70
2018-06-20T05:34:06.367Z,82.50
2018-06-20T05:36:34.865Z,81.30
2018-06-20T05:39:03.430Z,81.40
2018-06-20T05:41:31.904Z,80.00
2018-06-20T05:44:00.358Z,79.40
2018-06-20T05:46:28.813Z,79.50
2018-06-20T05:48:57.546Z,80.20
2018-06-20T05:51:26.041Z,78.10
2018-06-20T05:53:54.501Z,77.30
2018-06-20T05:56:22.973Z,76.00
2018-06-20T05:58:51.460Z,75.10
2018-06-20T06:03:48.466Z,73.20
2018-06-20T06:06:17.389Z,72.90
2018-06-20T06:09:13.878Z,73.00
2018-06-20T06:11:43.182Z,72.20
2018-06-20T06:14:11.653Z,70.60
2018-06-20T06:16:40.118Z,69.30
2018-06-20T06:19:08.569Z,68.30
2018-06-20T06:21:37.134Z,67.10
2018-06-20T06:24:05.597Z,67.60
2018-06-20T06:26:34.098Z,66.80
2018-06-20T06:29:02.580Z,65.60
2018-06-20T06:31:31.129Z,65.70
2018-06-20T06:33:59.569Z,66.50
2018-06-20T06:36:28.081Z,66.20
2018-06-20T06:38:56.576Z,65.60
2018-06-20T06:41:25.085Z,64.70
2018-06-20T06:43:53.542Z,64.70
2018-06-20T06:46:21.988Z,65.10
2018-06-20T06:48:50.555Z,64.00
2018-06-20T06:51:19.008Z,63.10
2018-06-20T06:53:47.793Z,64.00
2018-06-20T06:56:16.278Z,62.50
2018-06-20T06:58:44.765Z,62.40
2018-06-20T07:01:13.212Z,62.10
2018-06-20T07:03:41.672Z,62.60
2018-06-20T07:06:10.145Z,62.50
2018-06-20T07:08:38.585Z,62.70
2018-06-20T07:11:07.029Z,62.40
2018-06-20T07:13:35.477Z,61.80
2018-06-20T07:18:32.045Z,59.50
2018-06-20T07:21:00.538Z,59.30
2018-06-20T07:23:29.036Z,59.90
2018-06-20T07:25:57.497Z,60.40
2018-06-20T07:28:26.050Z,59.80
2018-06-20T07:30:54.512Z,59.20
2018-06-20T07:33:23.014Z,59.40
2018-06-20T07:35:51.573Z,59.10
2018-06-20T07:38:19.934Z,57.60
2018-06-20T07:40:48.429Z,57.20
2018-06-20T07:43:16.868Z,56.70
2018-06-20T07:45:45.375Z,56.70
2018-06-20T07:48:13.826Z,57.00
2018-06-20T07:50:42.278Z,57.50
2018-06-20T07:53:10.722Z,58.30
2018-06-20T07:55:39.306Z,58.50
2018-06-20T07:58:07.889Z,58.10
2018-06-20T08:00:41.907Z,57.50
2018-06-20T08:03:19.028Z,57.30
2018-06-20T08:05:52.938Z,57.60
2018-06-20T08:08:26.848Z,57.50
2018-06-20T08:11:00.673Z,56.30
2018-06-20T08:13:34.610Z,55.10
2018-06-20T08:16:08.462Z,55.00
2018-06-20T08:18:42.418Z,54.00
2018-06-20T08:21:10.990Z,53.30
2018-06-20T08:23:39.566Z,54.00
2018-06-20T08:26:08.066Z,53.10
2018-06-20T08:28:36.717Z,52.30
2018-06-20T08:31:05.294Z,53.60
2018-06-20T08:33:33.856Z,53.90
2018-06-20T08:36:02.348Z,53.30
2018-06-20T08:38:30.813Z,51.90
2018-06-20T08:40:59.361Z,51.90
2018-06-20T08:43:27.824Z,52.30
2018-06-20T08:45:56.309Z,52.60
2018-06-20T08:48:24.781Z,50.80
2018-06-20T08:50:53.222Z,50.00
2018-06-20T08:53:21.688Z,50.70
2018-06-20T08:55:50.129Z,50.60
2018-06-20T08:58:18.565Z,50.50
2018-06-20T09:00:52.381Z,49.00
2018-06-20T09:03:21.997Z,49.30
2018-06-20T09:05:55.881Z,49.40
2018-06-20T09:08:29.657Z,51.40
2018-06-20T09:11:03.424Z,51.80
2018-06-20T09:13:37.312Z,51.20
2018-06-20T09:16:11.133Z,51.30
2018-06-20T09:18:44.849Z,48.70
2018-06-20T09:23:41.456Z,48.40
2018-06-20T09:26:09.933Z,47.80
2018-06-20T09:28:38.385Z,47.20
2018-06-20T09:31:06.868Z,46.50
2018-06-20T09:33:35.301Z,47.10
2018-06-20T09:36:03.765Z,47.20
2018-06-20T09:38:32.259Z,49.20
2018-06-20T09:41:00.693Z,49.10
2018-06-20T09:43:29.134Z,49.60
2018-06-20T09:45:57.581Z,50.20
2018-06-20T09:48:26.023Z,51.00
2018-06-20T09:50:57.669Z,49.10
2018-06-20T09:53:26.518Z,47.70
2018-06-20T09:55:55.212Z,47.30
2018-06-20T09:58:23.674Z,46.10
2018-06-20T10:00:58.519Z,45.90
2018-06-20T10:03:32.440Z,46.60
2018-06-20T10:06:06.247Z,48.20
2018-06-20T10:08:40.128Z,47.10
2018-06-20T10:11:13.980Z,45.80
2018-06-20T10:13:44.911Z,46.40
2018-06-20T10:16:13.360Z,45.10
2018-06-20T10:18:41.799Z,47.60
2018-06-20T10:21:10.618Z,47.90
2018-06-20T10:23:39.221Z,48.00
2018-06-20T10:26:07.676Z,46.80
2018-06-20T10:28:36.194Z,47.30
2018-06-20T10:31:04.653Z,47.00
2018-06-20T10:33:33.089Z,46.30
2018-06-20T10:36:01.537Z,45.80
2018-06-20T10:38:29.973Z,46.80
2018-06-20T10:40:58.410Z,43.20
2018-06-20T10:43:26.886Z,42.60
2018-06-20T10:46:00.667Z,45.00
2018-06-20T10:48:29.090Z,44.20
2018-06-20T10:50:57.577Z,43.60
2018-06-20T10:53:26.016Z,42.90
2018-06-20T10:55:54.461Z,41.80
2018-06-20T10:58:28.192Z,40.60
2018-06-20T11:01:01.925Z,40.20
2018-06-20T11:03:35.810Z,40.30
2018-06-20T11:06:09.553Z,43.30
2018-06-20T11:08:43.317Z,43.00
2018-06-20T11:11:17.201Z,43.00
2018-06-20T11:13:45.761Z,41.80
2018-06-20T11:16:14.213Z,42.50
2018-06-20T11:18:45.797Z,41.70
2018-06-20T11:21:14.249Z,37.60
2018-06-20T11:23:42.720Z,37.90
2018-06-20T11:26:11.205Z,39.70
2018-06-20T11:33:35.971Z,41.50
2018-06-20T11:36:04.604Z,40.80
2018-06-20T11:38:33.105Z,39.90
2018-06-20T11:41:01.545Z,40.60
2018-06-20T11:43:30.019Z,41.60
2018-06-20T11:46:03.885Z,41.50
2018-06-20T11:48:32.336Z,39.40
2018-06-20T11:51:00.777Z,38.90
2018-06-20T11:53:29.237Z,39.80
2018-06-20T11:55:57.734Z,39.50
2018-06-20T11:58:31.482Z,38.40
2018-06-20T12:01:05.389Z,37.70
2018-06-20T12:03:39.145Z,36.30
2018-06-20T12:06:13.249Z,36.90
2018-06-20T12:08:46.928Z,36.20
2018-06-20T12:11:20.737Z,35.60
2018-06-20T12:13:54.541Z,35.50
2018-06-20T12:16:24.918Z,37.00
2018-06-20T12:18:58.884Z,37.50
2018-06-20T12:21:32.797Z,37.70
2018-06-20T12:24:06.615Z,35.50
2018-06-20T12:26:40.365Z,38.00
2018-06-20T12:29:14.324Z,37.60
2018-06-20T12:31:48.108Z,35.20
2018-06-20T12:34:21.900Z,35.80
2018-06-20T12:36:55.729Z,34.80
2018-06-20T12:39:23.361Z,37.70
2018-06-20T12:41:57.265Z,36.00
2018-06-20T12:44:25.948Z,36.20
2018-06-20T12:47:29.321Z,36.00
2018-06-20T12:50:01.393Z,34.50
2018-06-20T12:52:29.844Z,35.50
2018-06-20T12:54:58.391Z,35.40
2018-06-20T12:57:26.866Z,36.50
2018-06-20T12:59:55.402Z,35.20
2018-06-20T13:02:23.833Z,37.80
2018-06-20T13:04:52.413Z,37.80
2018-06-20T13:07:20.876Z,36.00
2018-06-20T13:09:49.318Z,36.50
2018-06-20T13:12:18.077Z,35.90
2018-06-20T13:14:46.573Z,35.40
2018-06-20T13:17:15.079Z,35.00
2018-06-20T13:19:43.525Z,35.00
2018-06-20T13:24:40.214Z,34.10
2018-06-20T13:27:08.896Z,34.90
2018-06-20T13:29:37.389Z,34.50
2018-06-20T13:32:11.279Z,35.20
2018-06-20T13:34:45.047Z,34.70
2018-06-20T13:37:19.087Z,34.40
2018-06-20T13:39:52.953Z,32.90
2018-06-20T13:42:26.816Z,33.60
2018-06-20T13:44:59.044Z,33.30
2018-06-20T13:48:30.745Z,34.90
2018-06-20T13:50:59.230Z,35.90
2018-06-20T13:53:27.699Z,36.00
2018-06-20T13:55:56.231Z,36.00
2018-06-20T13:58:24.829Z,36.40
2018-06-20T14:00:53.481Z,37.10
2018-06-20T14:03:21.929Z,37.00
2018-06-20T14:05:50.389Z,36.40
2018-06-20T14:08:18.873Z,36.10
2018-06-20T14:10:47.379Z,35.60
2018-06-20T14:13:15.821Z,34.30
2018-06-20T14:15:44.337Z,34.00
2018-06-20T14:18:12.885Z,33.10
2018-06-20T14:20:46.549Z,34.10
2018-06-20T14:23:15.006Z,34.20
2018-06-20T14:25:43.452Z,33.30
2018-06-20T14:28:11.933Z,32.20
2018-06-20T14:30:45.817Z,31.70
2018-06-20T14:33:19.561Z,31.70
2018-06-20T14:38:26.891Z,32.30
2018-06-20T14:41:00.670Z,32.60
2018-06-20T14:43:34.352Z,31.90
2018-06-20T14:46:08.141Z,30.50
2018-06-20T14:48:36.617Z,33.00
2018-06-20T14:51:05.759Z,31.20
2018-06-20T14:53:40.657Z,31.30
2018-06-20T14:56:09.288Z,31.50
2018-06-20T14:58:37.859Z,31.50
2018-06-20T15:01:06.437Z,30.20
2018-06-20T15:03:35.011Z,29.50
2018-06-20T15:06:03.521Z,31.60
2018-06-20T15:08:32.001Z,30.90
2018-06-20T15:11:00.441Z,29.30
2018-06-20T15:13:29.250Z,29.70
2018-06-20T15:18:30.397Z,29.30
2018-06-20T15:20:58.873Z,29.60
2018-06-20T15:23:27.314Z,30.20
2018-06-20T15:26:01.180Z,30.50
2018-06-20T15:31:08.601Z,28.90
2018-06-20T15:33:42.337Z,30.20
2018-06-20T15:36:16.233Z,30.30
2018-06-20T15:38:44.680Z,30.10
2018-06-20T15:43:41.313Z,30.30
2018-06-20T15:46:09.786Z,28.20
2018-06-20T15:48:38.229Z,30.30
2018-06-20T15:51:06.886Z,30.00
2018-06-20T15:53:35.349Z,28.60
2018-06-20T15:56:03.830Z,28.60
2018-06-20T15:58:32.289Z,29.40
2018-06-20T16:01:00.741Z,28.80
2018-06-20T16:03:29.168Z,29.10
2018-06-20T16:05:57.641Z,29.20
2018-06-20T16:08:26.132Z,29.70
2018-06-20T16:10:54.609Z,29.50
2018-06-20T16:13:23.063Z,29.20
2018-06-20T16:15:51.521Z,29.70
2018-06-20T16:18:20.389Z,30.20
2018-06-20T16:20:54.213Z,31.00
2018-06-20T16:23:28.139Z,30.70
2018-06-20T16:26:01.922Z,29.60
2018-06-20T16:28:35.807Z,31.20
2018-06-20T16:31:04.261Z,31.50
2018-06-20T16:33:32.714Z,32.40
2018-06-20T16:36:01.157Z,32.50
2018-06-20T16:38:29.609Z,33.40
2018-06-20T16:40:58.077Z,32.90
2018-06-20T16:43:26.549Z,33.40
2018-06-20T16:45:55.019Z,33.70
2018-06-20T16:48:23.469Z,34.30
2018-06-20T16:50:51.904Z,34.90
2018-06-20T16:53:20.420Z,35.20
2018-06-20T16:55:48.885Z,34.80
2018-06-20T16:58:17.364Z,35.90
2018-06-20T17:00:45.819Z,36.10
2018-06-20T17:03:14.254Z,36.90
2018-06-20T17:05:42.729Z,37.60
2018-06-20T17:08:11.205Z,38.10
2018-06-20T17:10:39.681Z,38.40
2018-06-20T17:13:13.532Z,38.40
2018-06-20T17:15:47.297Z,38.50
2018-06-20T17:18:21.113Z,38.40
2018-06-20T17:20:54.889Z,38.70
2018-06-20T17:23:28.664Z,38.40
2018-06-20T17:25:57.197Z,39.20
2018-06-20T17:28:25.665Z,39.40
2018-06-20T17:30:54.441Z,40.40
2018-06-20T17:33:22.918Z,39.80
2018-06-20T17:35:51.709Z,40.30
2018-06-20T17:38:20.174Z,40.70
2018-06-20T17:40:48.677Z,41.10
2018-06-20T17:43:17.176Z,41.50
2018-06-20T17:45:45.625Z,42.00
2018-06-20T17:48:14.263Z,42.10
2018-06-20T17:50:42.726Z,41.80
2018-06-20T17:53:11.178Z,41.70
2018-06-20T17:55:39.629Z,41.50
2018-06-20T17:58:08.149Z,41.20
2018-06-20T18:01:11.842Z,41.40
2018-06-20T18:03:41.283Z,41.60
2018-06-20T18:06:15.202Z,41.80
2018-06-20T18:08:48.877Z,42.00
2018-06-20T18:11:22.628Z,42.50
2018-06-20T18:13:56.522Z,43.00
2018-06-20T18:18:58.589Z,43.90
2018-06-20T18:21:27.063Z,44.40
2018-06-20T18:23:55.517Z,44.60
2018-06-20T18:26:24.009Z,44.00
2018-06-20T18:28:52.424Z,43.90
2018-06-20T18:31:20.929Z,43.80
2018-06-20T18:33:49.401Z,43.80
2018-06-20T18:36:17.863Z,44.10
2018-06-20T18:41:14.969Z,44.40
2018-06-20T18:43:43.373Z,44.90
2018-06-20T18:46:12.794Z,45.40
2018-06-20T18:48:42.437Z,46.40
2018-06-20T18:51:11.896Z,46.20
2018-06-20T18:53:40.555Z,46.80
2018-06-20T18:56:09.777Z,47.20
2018-06-20T18:58:43.714Z,47.20
2018-06-20T19:01:18.793Z,47.30
2018-06-20T19:03:52.593Z,47.20
2018-06-20T19:06:26.421Z,47.20
2018-06-20T19:08:58.561Z,47.10
2018-06-20T19:11:27.025Z,47.40
2018-06-20T19:13:55.469Z,47.80
2018-06-20T19:16:23.941Z,48.10
2018-06-20T19:18:52.397Z,48.30
2018-06-20T19:21:20.900Z,48.50
2018-06-20T19:23:49.391Z,48.50
2018-06-20T19:26:17.885Z,48.80
2018-06-20T19:28:46.414Z,49.30
2018-06-20T19:31:14.874Z,49.80
2018-06-20T19:33:43.379Z,50.10
2018-06-20T19:36:11.829Z,50.50
2018-06-20T19:38:40.337Z,50.80
2018-06-20T19:41:09.023Z,50.80
2018-06-20T19:43:41.713Z,50.50
2018-06-20T19:46:10.165Z,50.50
2018-06-20T19:48:38.605Z,50.60
2018-06-20T19:51:07.105Z,50.80
2018-06-20T19:53:35.662Z,51.20
2018-06-20T19:56:04.361Z,51.60
2018-06-20T19:58:32.992Z,52.10
2018-06-20T20:01:01.478Z,52.50
2018-06-20T20:03:30.001Z,52.70
2018-06-20T20:05:58.467Z,53.10
2018-06-20T20:08:26.967Z,53.30
2018-06-20T20:10:55.406Z,53.50
2018-06-20T20:13:23.877Z,53.80
2018-06-20T20:15:52.329Z,53.90
2018-06-20T20:18:20.781Z,54.00
2018-06-20T20:20:49.273Z,54.40
2018-06-20T20:23:18.500Z,54.50
2018-06-20T20:25:46.958Z,54.60
2018-06-20T20:28:15.665Z,54.80
2018-06-20T20:30:44.121Z,54.90
2018-06-20T20:33:12.569Z,55.00
2018-06-20T20:35:41.013Z,55.20
2018-06-20T20:38:09.541Z,55.30
2018-06-20T20:40:37.977Z,55.60
2018-06-20T20:45:34.745Z,56.10
2018-06-20T20:48:03.285Z,56.20
2018-06-20T20:50:31.760Z,56.00
2018-06-20T20:53:00.326Z,56.00
2018-06-20T20:55:28.789Z,56.00
2018-06-20T20:57:57.255Z,56.20
2018-06-20T21:00:25.721Z,56.20
2018-06-20T21:07:50.497Z,57.10
2018-06-20T21:10:18.953Z,56.60
2018-06-20T21:12:47.412Z,56.80
2018-06-20T21:15:15.860Z,56.90
2018-06-20T21:17:44.294Z,56.90
2018-06-20T21:20:12.789Z,56.80
2018-06-20T21:22:41.264Z,56.90
2018-06-20T21:25:09.713Z,57.00
2018-06-20T21:27:38.161Z,57.10
2018-06-20T21:30:06.645Z,56.90
2018-06-20T21:32:35.129Z,56.80
2018-06-20T21:35:03.597Z,56.90
2018-06-20T21:37:32.068Z,57.10
2018-06-20T21:40:00.600Z,57.10
2018-06-20T21:42:29.017Z,57.40
2018-06-20T21:44:57.477Z,57.70
2018-06-20T21:47:26.053Z,57.90
2018-06-20T21:52:22.657Z,57.40
2018-06-20T21:54:51.138Z,57.90
2018-06-20T21:57:19.605Z,57.30
2018-06-20T21:59:48.049Z,57.50
2018-06-20T22:02:16.533Z,57.50
2018-06-20T22:04:45.002Z,57.70
2018-06-20T22:07:13.454Z,57.90
2018-06-20T22:09:41.913Z,58.20
2018-06-20T22:12:10.489Z,58.40
2018-06-20T22:14:39.006Z,58.60
2018-06-20T22:17:07.593Z,58.50
2018-06-20T22:19:36.049Z,58.50
2018-06-20T22:22:04.529Z,58.60
2018-06-20T22:24:33.088Z,59.00
2018-06-20T22:27:01.593Z,59.10
2018-06-20T22:29:30.077Z,59.30
2018-06-20T22:31:58.531Z,59.50
2018-06-20T22:34:26.985Z,59.70
2018-06-20T22:36:55.437Z,59.80
2018-06-20T22:39:23.897Z,60.10
2018-06-20T22:41:52.356Z,60.30
2018-06-20T22:44:20.789Z,60.40
2018-06-20T22:46:49.226Z,60.70
2018-06-20T22:49:17.705Z,60.70
2018-06-20T22:51:46.150Z,60.80
2018-06-20T22:54:14.609Z,60.70
2018-06-20T22:56:43.048Z,60.60
2018-06-20T22:59:11.516Z,60.30
2018-06-20T23:01:39.953Z,60.30
2018-06-20T23:04:08.392Z,60.20
2018-06-20T23:06:36.839Z,60.20
2018-06-20T23:09:08.157Z,60.40
2018-06-20T23:11:41.973Z,60.70
2018-06-20T23:14:10.429Z,60.70
2018-06-20T23:16:38.915Z,61.70
2018-06-20T23:19:07.902Z,61.60
2018-06-20T23:21:36.346Z,61.60
2018-06-20T23:24:04.853Z,61.50
2018-06-20T23:26:33.293Z,61.40
2018-06-20T23:29:01.793Z,61.50
2018-06-20T23:31:30.273Z,61.70
2018-06-20T23:33:58.756Z,62.00
2018-06-20T23:36:27.221Z,62.20
2018-06-20T23:38:55.676Z,63.30
2018-06-20T23:41:24.128Z,62.60
2018-06-20T23:43:52.631Z,63.50
2018-06-20T23:46:21.105Z,62.90
2018-06-20T23:48:49.569Z,63.10
2018-06-20T23:51:18.071Z,63.50
2018-06-20T23:53:46.517Z,63.60
2018-06-20T23:56:14.969Z,63.70
2018-06-20T23:58:43.420Z,63.70
